Time;durP1;ratioP1;P1;durP2;ratioP2;P2;SDS_P1;SDS_P2;PMS_P1;PMS_P2;Temp;Humidity;BMP_temperature;BMP_pressure;BME280_temperature;BME280_humidity;BME280_pressure;Samples;Min_cycle;Max_cycle;Signal;HPM_P1;HPM_P2
2021/10/27 00:00:55;;;;;;;21.77;19.40;;;;;;;5.74;81.89;100410.03;5057589;28;20290;-77
2021/10/27 00:03:42;;;;;;;25.17;20.60;;;;;;;5.66;81.75;100401.25;5074035;28;20252;-77
2021/10/27 00:06:28;;;;;;;23.03;20.50;;;;;;;5.57;81.68;100400.44;5079087;22;20239;-78
2021/10/27 00:09:29;;;;;;;23.80;20.03;;;;;;;5.58;81.71;100398.59;5081227;22;20279;-78
2021/10/27 00:12:25;;;;;;;21.50;19.20;;;;;;;5.49;82.37;100387.16;5074072;28;20212;-77
2021/10/27 00:15:03;;;;;;;24.03;20.03;;;;;;;5.49;82.25;100397.78;5074026;28;20216;-78
2021/10/27 00:17:41;;;;;;;23.10;20.47;;;;;;;5.49;82.05;100391.66;5074113;28;20205;-77
2021/10/27 00:20:48;;;;;;;21.10;18.97;;;;;;;5.41;81.98;100381.03;5081699;22;20259;-77
2021/10/27 00:24:32;;;;;;;21.40;19.20;;;;;;;5.27;81.80;100378.03;5081610;22;20224;-77
2021/10/27 00:27:20;;;;;;;21.50;19.20;;;;;;;5.24;82.29;100383.69;5085447;22;20256;-78
2021/10/27 00:30:12;;;;;;;21.03;18.83;;;;;;;5.20;82.06;100385.03;5073256;28;20209;-77
2021/10/27 00:32:43;;;;;;;22.40;19.00;;;;;;;5.11;82.21;100385.19;5072552;28;20255;-78
2021/10/27 00:35:13;;;;;;;21.93;18.53;;;;;;;5.09;82.11;100376.53;5056018;28;20216;-78
2021/10/27 00:38:34;;;;;;;20.13;18.03;;;;;;;5.10;82.53;100381.69;5079548;22;20245;-77
2021/10/27 00:42:15;;;;;;;21.33;18.17;;;;;;;5.17;83.15;100384.53;5060059;28;20228;-77
2021/10/27 00:44:46;;;;;;;21.23;17.80;;;;;;;5.25;83.40;100396.00;5072872;28;20240;-77
2021/10/27 00:47:22;;;;;;;21.43;17.93;;;;;;;5.21;83.68;100375.22;5072280;28;20273;-78
2021/10/27 00:50:07;;;;;;;20.93;17.97;;;;;;;5.29;83.90;100372.56;5072462;28;20316;-77
2021/10/27 00:52:42;;;;;;;20.47;17.83;;;;;;;5.28;83.44;100379.69;5055447;28;20277;-77
2021/10/27 00:55:28;;;;;;;20.57;17.47;;;;;;;5.32;83.36;100381.03;5069345;28;20236;-78
2021/10/27 00:58:18;;;;;;;20.30;17.33;;;;;;;5.37;83.90;100383.19;5077827;28;20248;-77
2021/10/27 01:00:54;;;;;;;20.23;17.97;;;;;;;5.38;83.86;100376.88;5078473;28;20221;-77
2021/10/27 01:03:48;;;;;;;19.57;16.83;;;;;;;5.32;84.17;100378.38;5075747;23;20308;-78
2021/10/27 01:06:36;;;;;;;20.47;17.07;;;;;;;5.39;84.09;100381.19;5078101;22;20212;-77
2021/10/27 01:09:49;;;;;;;19.10;16.73;;;;;;;5.39;83.97;100383.00;5045364;22;20234;-77
2021/10/27 01:12:23;;;;;;;18.83;16.83;;;;;;;5.33;83.75;100374.72;5165870;22;20232;-77
2021/10/27 01:14:57;;;;;;;19.47;17.03;;;;;;;5.39;83.77;100386.50;5061518;28;20252;-78
2021/10/27 01:17:47;;;;;;;18.80;16.60;;;;;;;5.41;84.29;100386.34;5082465;22;20233;-77
2021/10/27 01:20:39;;;;;;;18.53;16.53;;;;;;;5.42;84.23;100383.50;5084548;22;20243;-77
2021/10/27 01:23:13;;;;;;;18.07;16.13;;;;;;;5.31;84.16;100370.59;5078922;28;20620;-77
2021/10/27 01:26:08;;;;;;;18.00;16.17;;;;;;;5.34;84.39;100375.56;5061440;28;20185;-77
2021/10/27 01:28:53;;;;;;;19.17;16.60;;;;;;;5.44;84.23;100378.88;5076002;28;20643;-78
2021/10/27 01:31:37;;;;;;;21.40;16.97;;;;;;;5.53;84.80;100388.47;5063113;28;20201;-77
2021/10/27 01:34:23;;;;;;;19.70;16.20;;;;;;;5.50;85.58;100375.53;5077299;28;20243;-77
2021/10/27 01:37:40;;;;;;;19.30;16.60;;;;;;;5.69;84.62;100399.06;5071252;28;20284;-77
2021/10/27 01:43:45;;;;;;;16.83;15.03;;;;;;;5.67;84.87;100389.63;5073900;22;20227;-77
2021/10/27 01:46:50;;;;;;;17.30;15.50;;;;;;;5.61;84.75;100387.63;5076591;28;20213;-77
2021/10/27 01:49:44;;;;;;;17.87;14.83;;;;;;;5.60;84.80;100393.97;5075754;28;20234;-77
2021/10/27 01:52:51;;;;;;;16.30;14.67;;;;;;;5.60;84.59;100392.13;5072475;23;20254;-78
2021/10/27 01:55:46;;;;;;;17.47;15.37;;;;;;;5.53;84.47;100390.31;5097459;28;20227;-77
2021/10/27 01:58:40;;;;;;;17.97;15.33;;;;;;;5.50;85.44;100380.84;5111235;22;20221;-77
2021/10/27 02:01:09;;;;;;;16.63;14.83;;;;;;;5.52;85.47;100392.13;5071722;23;20244;-77
2021/10/27 02:03:51;;;;;;;19.40;15.33;;;;;;;5.48;85.18;100392.63;5156799;23;20220;-77
2021/10/27 02:06:51;;;;;;;16.67;14.43;;;;;;;5.43;84.97;100389.66;5090736;22;20217;-77
2021/10/27 02:09:58;;;;;;;17.37;15.10;;;;;;;5.33;84.87;100390.66;5026868;28;20224;-77
2021/10/27 02:12:33;;;;;;;17.03;14.97;;;;;;;5.32;84.75;100394.31;5075354;28;20247;-77
2021/10/27 02:15:22;;;;;;;18.70;15.93;;;;;;;5.27;85.30;100396.63;5121445;22;20263;-77
2021/10/27 02:18:01;;;;;;;20.97;17.20;;;;;;;5.23;85.28;100400.63;5059641;28;20184;-77
2021/10/27 02:20:55;;;;;;;20.17;16.37;;;;;;;5.21;85.03;100397.31;5083474;22;20240;-77
2021/10/27 02:23:35;;;;;;;17.90;16.00;;;;;;;5.03;85.24;100388.69;5076588;22;20236;-77
2021/10/27 02:26:49;;;;;;;19.43;17.30;;;;;;;5.13;85.49;100401.81;5063739;22;20230;-77
2021/10/27 02:30:01;;;;;;;20.37;17.10;;;;;;;5.13;85.49;100407.13;5056221;28;20230;-77
2021/10/27 02:32:41;;;;;;;19.33;17.20;;;;;;;5.11;85.14;100401.97;5055734;28;20221;-77
2021/10/27 02:35:49;;;;;;;20.57;16.97;;;;;;;5.10;85.54;100394.16;5057811;28;20237;-77
2021/10/27 02:39:19;;;;;;;20.03;17.50;;;;;;;5.04;85.51;100392.19;5075944;22;20224;-77
2021/10/27 02:43:04;;;;;;;24.33;17.90;;;;;;;5.02;86.10;100404.78;5075527;28;20232;-77
2021/10/27 02:45:35;;;;;;;21.33;18.07;;;;;;;4.98;85.59;100404.28;5058852;28;20216;-77
2021/10/27 02:48:51;;;;;;;18.80;16.80;;;;;;;4.95;85.85;100409.91;5072518;28;20225;-77
2021/10/27 02:51:48;;;;;;;20.93;16.77;;;;;;;4.86;85.53;100406.41;5074705;28;20228;-78
2021/10/27 02:54:34;;;;;;;22.10;17.00;;;;;;;4.80;85.33;100406.25;5164545;22;20241;-77
2021/10/27 03:00:35;;;;;;;19.13;17.10;;;;;;;4.73;85.45;100408.72;5014423;28;20243;-77
2021/10/27 03:03:11;;;;;;;19.50;17.43;;;;;;;4.73;85.75;100418.50;5037012;22;20222;-77
2021/10/27 03:06:24;;;;;;;22.67;17.77;;;;;;;4.68;85.85;100418.16;5057236;22;20209;-77
2021/10/27 03:09:45;;;;;;;21.87;17.73;;;;;;;4.63;85.55;100431.09;5075949;28;20212;-78
2021/10/27 03:12:54;;;;;;;19.90;17.10;;;;;;;4.37;85.78;100405.50;5082544;22;20217;-77
2021/10/27 03:15:31;;;;;;;20.43;16.53;;;;;;;4.49;85.88;100424.59;5065274;23;20228;-76
2021/10/27 03:18:22;;;;;;;21.93;17.93;;;;;;;4.42;86.05;100419.09;5096067;28;20196;-77
2021/10/27 03:21:19;;;;;;;21.63;18.17;;;;;;;4.45;86.17;100423.25;5095856;28;20200;-77
2021/10/27 03:27:44;;;;;;;20.83;16.93;;;;;;;4.32;86.14;100428.19;5164696;22;20233;-77
2021/10/27 03:30:21;;;;;;;20.27;17.57;;;;;;;4.29;85.91;100428.50;5078401;22;20229;-76
2021/10/27 03:33:04;;;;;;;21.60;17.20;;;;;;;4.29;85.93;100431.16;5059907;28;20192;-77
2021/10/27 03:35:52;;;;;;;20.33;17.33;;;;;;;4.20;85.90;100422.31;5077406;22;20255;-76
2021/10/27 03:38:45;;;;;;;23.13;17.67;;;;;;;4.15;86.05;100431.75;5054117;28;20236;-77
2021/10/27 03:41:52;;;;;;;19.43;17.20;;;;;;;4.13;86.01;100433.72;5068218;22;20229;-76
2021/10/27 03:44:24;;;;;;;19.80;17.47;;;;;;;3.94;85.65;100417.06;5076239;22;20243;-77
2021/10/27 03:47:41;;;;;;;20.67;17.40;;;;;;;3.97;85.98;100435.31;5056075;28;20226;-77
2021/10/27 03:50:30;;;;;;;18.63;16.10;;;;;;;3.98;86.20;100441.44;5082211;22;20221;-77
2021/10/27 03:53:02;;;;;;;20.27;16.97;;;;;;;3.94;86.35;100440.09;5060734;23;20260;-77
2021/10/27 03:55:38;;;;;;;19.87;17.50;;;;;;;3.91;86.37;100443.91;5095593;28;20180;-77
2021/10/27 03:58:22;;;;;;;20.00;16.93;;;;;;;3.86;86.64;100445.34;5088475;22;20239;-77
2021/10/27 04:01:40;;;;;;;20.03;17.10;;;;;;;3.87;86.40;100447.03;5081476;22;20236;-77
2021/10/27 04:05:18;;;;;;;19.57;16.57;;;;;;;3.87;86.25;100458.44;5072933;28;20233;-77
2021/10/27 04:08:58;;;;;;;17.77;15.87;;;;;;;3.82;86.13;100459.91;5109325;22;20210;-76
2021/10/27 04:12:10;;;;;;;20.67;17.00;;;;;;;3.79;86.49;100469.00;5011424;28;20223;-76
2021/10/27 04:15:14;;;;;;;19.50;17.33;;;;;;;3.67;86.26;100457.00;5014349;28;20219;-77
2021/10/27 04:17:50;;;;;;;19.70;17.17;;;;;;;3.69;86.02;100468.25;5023712;22;20219;-77
2021/10/27 04:20:43;;;;;;;19.57;16.63;;;;;;;3.49;86.43;100442.97;5075168;22;20237;-77
2021/10/27 04:23:42;;;;;;;18.53;15.77;;;;;;;3.61;86.18;100473.50;5073566;28;20239;-77
2021/10/27 04:26:51;;;;;;;18.67;15.90;;;;;;;3.61;86.35;100464.72;5073327;28;20228;-77
2021/10/27 04:29:42;;;;;;;18.63;16.37;;;;;;;3.56;86.41;100462.53;5073224;28;20232;-76
2021/10/27 04:32:35;;;;;;;21.47;16.87;;;;;;;3.51;86.36;100462.16;5082431;22;20239;-77
2021/10/27 04:35:30;;;;;;;17.37;15.50;;;;;;;3.52;85.93;100469.13;5076393;28;20267;-76
2021/10/27 04:38:07;;;;;;;17.07;15.27;;;;;;;3.52;85.61;100477.09;5058360;28;20260;-77
2021/10/27 04:40:42;;;;;;;18.70;15.97;;;;;;;3.49;85.64;100466.81;5078528;28;20249;-76
2021/10/27 04:43:41;;;;;;;19.07;16.70;;;;;;;3.38;85.80;100478.47;5077553;28;20221;-77
2021/10/27 04:46:45;;;;;;;16.93;15.13;;;;;;;3.32;86.07;100478.22;5166008;22;20240;-77
2021/10/27 04:49:35;;;;;;;18.17;16.07;;;;;;;3.34;86.25;100476.28;5076269;28;20233;-77
2021/10/27 04:52:37;;;;;;;17.40;15.57;;;;;;;3.32;86.25;100475.59;5075124;28;20240;-76
2021/10/27 04:55:18;;;;;;;18.30;16.10;;;;;;;3.31;86.25;100480.03;5072036;28;20292;-77
2021/10/27 04:57:56;;;;;;;17.40;15.33;;;;;;;3.15;86.02;100455.25;5083430;22;20245;-76
2021/10/27 05:00:54;;;;;;;18.00;15.27;;;;;;;3.19;85.91;100475.97;5064112;28;20225;-77
2021/10/27 05:03:24;;;;;;;17.93;15.87;;;;;;;3.19;86.06;100475.13;5075176;28;20259;-77
2021/10/27 05:05:56;;;;;;;18.90;15.53;;;;;;;3.09;86.42;100456.69;5065686;22;20208;-77
2021/10/27 05:08:53;;;;;;;18.80;15.40;;;;;;;3.19;86.25;100475.13;5058338;28;20237;-77
2021/10/27 05:11:37;;;;;;;18.73;15.20;;;;;;;3.18;86.57;100476.13;5077086;28;20198;-76
2021/10/27 05:14:29;;;;;;;19.37;15.67;;;;;;;3.16;86.66;100475.47;5076083;28;20232;-77
2021/10/27 05:17:10;;;;;;;18.43;16.07;;;;;;;3.20;87.22;100479.47;5077830;28;20192;-76
2021/10/27 05:20:34;;;;;;;22.63;17.17;;;;;;;3.22;86.43;100477.50;5084726;22;20213;-77
2021/10/27 05:23:47;;;;;;;21.33;16.90;;;;;;;3.25;86.78;100472.72;5063441;28;20236;-76
2021/10/27 05:26:34;;;;;;;24.80;18.60;;;;;;;3.19;86.34;100483.09;5075696;28;20186;-77
2021/10/27 05:29:02;;;;;;;24.83;19.37;;;;;;;3.14;86.76;100475.59;5075899;28;20231;-77
2021/10/27 05:31:58;;;;;;;22.67;18.70;;;;;;;3.23;86.82;100492.38;5084866;22;20213;-77
2021/10/27 05:35:17;;;;;;;20.00;16.77;;;;;;;3.20;86.95;100498.84;5054091;28;20229;-76
2021/10/27 05:37:55;;;;;;;19.60;16.37;;;;;;;3.22;86.79;100498.69;5076552;28;20274;-78
2021/10/27 05:40:49;;;;;;;17.57;15.60;;;;;;;3.24;87.10;100505.50;5193350;22;20229;-76
2021/10/27 05:43:57;;;;;;;21.43;16.27;;;;;;;3.30;87.06;100509.34;5004202;28;20199;-77
2021/10/27 05:46:52;;;;;;;19.43;17.33;;;;;;;3.33;86.81;100514.34;5013674;28;20215;-77
2021/10/27 05:49:40;;;;;;;20.53;17.00;;;;;;;3.27;87.00;100497.22;5012453;28;20254;-77
2021/10/27 05:57:40;;;;;;;17.67;14.53;;;;;;;3.49;86.95;100514.50;5064233;23;20227;-77
2021/10/27 06:00:17;;;;;;;16.80;14.63;;;;;;;3.58;86.57;100523.34;5111887;22;20237;-77
2021/10/27 06:02:57;;;;;;;17.60;14.93;;;;;;;3.62;86.59;100522.03;5070712;23;20259;-78
2021/10/27 06:05:25;;;;;;;22.07;16.43;;;;;;;3.68;86.88;100530.22;5071466;22;20228;-78
2021/10/27 06:08:08;;;;;;;16.50;14.40;;;;;;;3.79;86.66;100534.44;5056734;23;20293;-78
2021/10/27 06:10:37;;;;;;;17.33;14.80;;;;;;;3.88;86.53;100528.19;5069983;22;20244;-78
2021/10/27 06:13:07;;;;;;;17.13;14.10;;;;;;;3.96;86.30;100531.78;5050327;23;20285;-78
2021/10/27 06:15:53;;;;;;;17.97;14.73;;;;;;;4.02;86.48;100524.16;5074647;28;20182;-78
2021/10/27 06:18:23;;;;;;;16.83;14.20;;;;;;;4.09;86.54;100527.84;5090773;28;20704;-77
2021/10/27 06:21:03;;;;;;;16.63;14.27;;;;;;;4.19;86.00;100536.53;5074372;28;20241;-78
2021/10/27 06:23:47;;;;;;;15.43;13.83;;;;;;;4.37;85.77;100554.06;5090536;22;20225;-77
2021/10/27 06:26:31;;;;;;;14.97;13.13;;;;;;;4.46;85.74;100554.09;5067342;22;20236;-77
2021/10/27 06:29:26;;;;;;;16.27;12.80;;;;;;;4.45;85.35;100537.34;5055504;23;20315;-77
2021/10/27 06:35:14;;;;;;;15.17;13.63;;;;;;;4.79;85.15;100555.91;5080354;23;20284;-78
2021/10/27 06:46:41;;;;;;;16.80;13.20;;;;;;;5.40;84.59;100568.88;5072836;22;20221;-77
2021/10/27 06:50:04;;;;;;;18.17;13.53;;;;;;;5.59;84.60;100581.88;5035778;28;20217;-78
2021/10/27 06:53:01;;;;;;;16.67;13.07;;;;;;;5.76;84.45;100585.38;5035111;28;20230;-78
2021/10/27 06:55:33;;;;;;;15.83;12.43;;;;;;;5.89;83.89;100587.56;5036478;28;20215;-79
2021/10/27 06:58:02;;;;;;;18.27;12.60;;;;;;;5.93;83.69;100573.75;5037924;28;20274;-77
2021/10/27 07:00:51;;;;;;;14.03;12.13;;;;;;;6.12;83.51;100586.72;5063342;22;20252;-78
2021/10/27 07:16:29;;;;;;;20.53;16.13;;;;;;;7.06;82.78;100591.28;5086567;22;20232;-77
2021/10/27 07:19:34;;;;;;;20.20;16.07;;;;;;;7.19;81.68;100580.06;5065766;28;20182;-78
2021/10/27 07:22:26;;;;;;;20.67;16.53;;;;;;;7.43;81.26;100612.75;5082150;22;20261;-78
2021/10/27 07:25:22;;;;;;;20.57;16.87;;;;;;;7.55;80.88;100612.38;5060519;28;20247;-77
2021/10/27 07:28:14;;;;;;;22.37;17.77;;;;;;;7.66;80.31;100604.78;5083114;22;20231;-77
2021/10/27 07:31:31;;;;;;;18.90;16.83;;;;;;;7.73;80.20;100591.56;5084392;22;20213;-77
2021/10/27 07:35:17;;;;;;;16.07;14.37;;;;;;;7.93;79.90;100604.25;5063476;28;20259;-77
2021/10/27 07:41:25;;;;;;;18.77;13.00;;;;;;;8.22;78.95;100598.16;5073402;22;20237;-77
2021/10/27 07:44:41;;;;;;;17.73;12.90;;;;;;;8.41;79.22;100602.19;5060693;28;20240;-78
2021/10/27 07:47:19;;;;;;;17.23;12.60;;;;;;;8.57;78.77;100603.88;5076080;28;20190;-78
2021/10/27 07:50:52;;;;;;;15.67;12.70;;;;;;;8.70;78.71;100599.56;4996375;28;20224;-77
2021/10/27 07:53:44;;;;;;;21.40;14.23;;;;;;;8.87;78.43;100596.69;5008531;22;20255;-77
2021/10/27 07:56:34;;;;;;;24.13;19.87;;;;;;;8.94;77.75;100592.25;5039146;28;20240;-78
2021/10/27 07:59:05;;;;;;;19.53;15.77;;;;;;;9.03;77.91;100591.16;5052374;23;20248;-78
2021/10/27 08:02:17;;;;;;;16.87;14.93;;;;;;;9.30;77.00;100595.81;5100728;22;20212;-78
2021/10/27 08:09:16;;;;;;;17.73;15.57;;;;;;;9.73;75.86;100596.69;5016407;28;20211;-78
2021/10/27 08:12:07;;;;;;;16.37;13.73;;;;;;;9.84;75.89;100600.72;5018069;28;20210;-79
2021/10/27 08:15:12;;;;;;;20.13;15.13;;;;;;;10.06;75.18;100605.03;5036391;22;20216;-78
2021/10/27 08:18:17;;;;;;;18.13;14.93;;;;;;;10.24;74.87;100601.91;5158727;22;20214;-78
2021/10/27 08:21:03;;;;;;;22.90;16.97;;;;;;;10.34;74.67;100603.25;5081892;22;20227;-78
2021/10/27 08:23:57;;;;;;;25.53;21.80;;;;;;;10.50;74.57;100604.78;5087949;22;20288;-78
2021/10/27 08:27:18;;;;;;;20.93;18.73;;;;;;;10.70;73.98;100607.59;5086736;22;20230;-78
2021/10/27 08:30:32;;;;;;;18.40;16.40;;;;;;;10.84;73.47;100598.63;5087380;22;20264;-78
2021/10/27 08:34:31;;;;;;;20.53;17.23;;;;;;;10.90;73.08;100587.94;5140668;22;20225;-78
2021/10/27 08:37:30;;;;;;;20.27;15.87;;;;;;;11.13;72.49;100598.34;4977013;28;20224;-78
2021/10/27 08:40:33;;;;;;;19.20;15.77;;;;;;;11.23;72.05;100606.88;5152923;22;20221;-78
2021/10/27 08:44:13;;;;;;;16.90;15.07;;;;;;;11.35;71.34;100604.41;5055319;28;20209;-78
2021/10/27 08:47:15;;;;;;;17.13;14.37;;;;;;;11.54;70.70;100608.19;5056112;28;20218;-80
2021/10/27 08:50:37;;;;;;;17.50;14.67;;;;;;;11.66;70.44;100603.91;5043996;28;20214;-78
2021/10/27 08:53:28;;;;;;;19.30;14.90;;;;;;;11.68;70.63;100596.47;5055707;28;20205;-78
2021/10/27 08:56:49;;;;;;;17.97;14.27;;;;;;;11.80;70.02;100594.88;5056046;28;20197;-78
2021/10/27 09:06:07;;;;;;;19.67;14.73;;;;;;;12.21;69.30;100592.03;5068097;22;20237;-78
2021/10/27 09:16:26;;;;;;;16.23;14.53;;;;;;;12.54;68.05;100581.25;5082220;22;20296;-78
2021/10/27 10:06:28;;;;;;;16.30;14.60;;;;;;;14.63;61.68;100567.63;5064052;28;20253;-83
2021/10/27 10:08:56;;;;;;;16.97;15.17;;;;;;;14.73;61.07;100561.72;5023854;28;20225;-86
2021/10/27 10:11:26;;;;;;;17.47;15.67;;;;;;;14.84;59.95;100563.66;5039791;28;20653;-88
2021/10/27 10:13:58;;;;;;;16.47;13.73;;;;;;;14.79;59.94;100558.94;5040020;28;20242;-88
2021/10/27 10:16:25;;;;;;;15.47;13.47;;;;;;;14.91;59.92;100559.03;5023296;28;20235;-88
2021/10/27 10:18:58;;;;;;;13.70;12.30;;;;;;;15.06;59.28;100564.88;5039739;28;20251;-90
2021/10/27 10:21:29;;;;;;;13.43;11.80;;;;;;;15.23;57.89;100557.78;5023651;28;20261;-84
2021/10/27 10:24:25;;;;;;;12.37;10.93;;;;;;;15.34;57.42;100559.75;5023947;28;20598;-88
2021/10/27 10:26:55;;;;;;;12.20;11.00;;;;;;;15.46;57.44;100558.94;5056708;28;20237;-89
2021/10/27 10:29:43;;;;;;;12.07;10.30;;;;;;;15.56;56.52;100551.16;5023088;28;20294;-90
2021/10/27 10:32:24;;;;;;;11.73;10.43;;;;;;;15.67;56.95;100553.06;5038938;28;20224;-87
2021/10/27 10:35:03;;;;;;;12.30;9.50;;;;;;;15.73;57.24;100558.38;5039244;28;20236;-86
2021/10/27 10:37:33;;;;;;;9.83;8.80;;;;;;;15.79;55.79;100543.13;5022975;28;20233;-87
2021/10/27 10:40:36;;;;;;;10.17;8.73;;;;;;;15.94;54.96;100550.78;5026516;28;20239;-84
2021/10/27 11:40:34;;;;;;;5.80;3.63;;;;;;;17.07;49.22;100489.81;5010438;28;20270;-88
2021/10/27 11:43:07;;;;;;;6.47;3.70;;;;;;;17.10;49.42;100480.38;5038730;28;20288;-85
2021/10/27 11:45:42;;;;;;;4.70;3.53;;;;;;;16.97;48.88;100475.25;5019557;28;20225;-87
2021/10/27 11:48:19;;;;;;;4.03;3.37;;;;;;;16.91;49.55;100460.78;5028972;28;20638;-89
2021/10/27 11:50:46;;;;;;;3.90;3.50;;;;;;;16.94;49.41;100468.41;5041669;28;20240;-87
2021/10/27 11:53:33;;;;;;;4.30;3.60;;;;;;;16.81;49.35;100465.97;5021375;28;20221;-80
2021/10/27 11:56:20;;;;;;;5.70;3.40;;;;;;;17.03;48.63;100458.84;5021598;28;20253;-88
2021/10/27 11:58:49;;;;;;;5.57;3.50;;;;;;;17.14;48.69;100457.16;5037192;28;20279;-82
2021/10/27 12:01:41;;;;;;;6.40;3.50;;;;;;;17.26;48.42;100462.53;5036919;28;20305;-89
2021/10/27 12:04:12;;;;;;;5.73;3.90;;;;;;;17.33;48.31;100455.06;5021886;28;20633;-88
2021/10/27 12:06:52;;;;;;;4.30;3.60;;;;;;;17.38;47.91;100450.56;5021736;28;20584;-88
2021/10/27 12:15:20;;;;;;;3.93;3.60;;;;;;;17.53;47.08;100447.28;5022092;28;20221;-87
2021/10/27 12:18:08;;;;;;;6.10;3.93;;;;;;;17.70;46.78;100442.72;5034978;28;20222;-86
2021/10/27 12:20:40;;;;;;;5.17;3.20;;;;;;;17.63;46.73;100433.94;5028982;28;20236;-88
2021/10/27 12:23:20;;;;;;;4.17;3.67;;;;;;;17.65;46.82;100422.84;5036380;28;20303;-88
2021/10/27 12:25:49;;;;;;;6.17;3.90;;;;;;;17.49;46.97;100435.31;5037476;28;20229;-86
2021/10/27 12:28:33;;;;;;;5.63;4.03;;;;;;;17.25;47.07;100437.31;5021025;28;20321;-89
2021/10/27 12:31:20;;;;;;;6.17;4.00;;;;;;;16.98;47.78;100430.88;5021426;28;20240;-88
2021/10/27 12:33:48;;;;;;;4.40;4.00;;;;;;;16.84;48.12;100424.94;5037583;28;20232;-85
2021/10/27 12:36:34;;;;;;;6.33;4.27;;;;;;;16.73;49.18;100434.72;5036216;28;20251;-87
2021/10/27 12:39:23;;;;;;;6.47;4.00;;;;;;;16.91;48.78;100420.19;5038912;28;20232;-89
2021/10/27 12:42:17;;;;;;;4.17;3.77;;;;;;;17.11;47.62;100425.16;5033074;28;20236;-89
2021/10/27 12:44:49;;;;;;;5.13;3.97;;;;;;;17.21;47.97;100421.81;5017210;28;20225;-85
2021/10/27 12:47:21;;;;;;;6.43;3.90;;;;;;;16.98;48.69;100412.72;5001234;28;20245;-87
2021/10/27 12:49:49;;;;;;;4.47;4.07;;;;;;;16.98;48.40;100411.94;5013491;28;20575;-87
2021/10/27 12:52:29;;;;;;;5.77;4.13;;;;;;;17.12;48.30;100427.59;5013900;28;20256;-89
2021/10/27 12:55:06;;;;;;;5.50;3.43;;;;;;;17.27;48.09;100424.34;5001984;28;20232;-89
2021/10/27 12:57:50;;;;;;;5.37;3.80;;;;;;;17.40;47.67;100415.94;4985855;28;20285;-87
2021/10/27 13:00:19;;;;;;;6.03;4.27;;;;;;;17.26;47.17;100411.91;5001536;28;20549;-87
2021/10/27 13:03:01;;;;;;;4.27;3.70;;;;;;;17.32;47.23;100405.47;5002075;28;20634;-84
2021/10/27 13:05:37;;;;;;;5.83;3.90;;;;;;;17.34;46.88;100397.13;4986172;28;20227;-88
2021/10/27 13:08:20;;;;;;;6.80;3.83;;;;;;;17.48;46.78;100409.28;5000253;28;20634;-88
2021/10/27 13:11:04;;;;;;;4.87;4.10;;;;;;;17.48;47.45;100407.41;5017260;28;20562;-81
2021/10/27 13:16:55;;;;;;;4.40;3.60;;;;;;;17.48;46.59;100387.59;5002508;28;20230;-87
2021/10/27 13:19:35;;;;;;;4.00;3.57;;;;;;;17.52;47.16;100394.16;5029294;28;20222;-89
2021/10/27 13:30:21;;;;;;;6.17;4.00;;;;;;;17.57;47.43;100397.78;5037944;28;20313;-88
2021/10/27 13:32:56;;;;;;;5.93;3.63;;;;;;;17.54;47.36;100381.22;5005073;28;20229;-85
2021/10/27 13:35:27;;;;;;;6.00;3.90;;;;;;;17.51;47.18;100385.22;5022056;28;20230;-81
2021/10/27 13:37:53;;;;;;;5.13;3.50;;;;;;;17.57;47.05;100386.13;5035555;28;20226;-87
2021/10/27 13:40:20;;;;;;;4.30;3.43;;;;;;;17.68;46.46;100381.72;5017479;28;20281;-87
2021/10/27 13:45:25;;;;;;;7.70;3.43;;;;;;;17.69;46.21;100389.59;5035897;28;20312;-84
2021/10/27 14:07:07;;;;;;;4.57;3.50;;;;;;;17.34;46.17;100365.44;5036796;28;20238;-86
2021/10/27 14:09:47;;;;;;;3.17;2.60;;;;;;;17.27;47.20;100372.91;5036840;28;20240;-82
2021/10/27 15:20:16;;;;;;;5.60;4.40;;;;;;;14.37;57.27;100357.63;5035559;28;20303;-84
2021/10/27 15:28:04;;;;;;;8.87;4.90;;;;;;;14.02;58.33;100379.75;5020171;28;20242;-89
2021/10/27 15:43:50;;;;;;;6.30;3.90;;;;;;;13.19;60.70;100383.84;5038931;28;20242;-86
2021/10/27 15:51:58;;;;;;;6.83;4.80;;;;;;;12.62;62.20;100361.41;5022693;28;20221;-88
2021/10/27 15:54:27;;;;;;;6.83;4.80;;;;;;;12.59;62.59;100377.97;5018784;28;20238;-84
2021/10/27 15:56:55;;;;;;;5.43;4.57;;;;;;;12.41;62.98;100377.81;5019228;28;20223;-87
2021/10/27 15:59:21;;;;;;;7.43;5.40;;;;;;;12.35;63.68;100386.75;5022654;28;20222;-87
2021/10/27 16:01:48;;;;;;;7.67;5.30;;;;;;;12.18;63.98;100375.66;5001149;28;20230;-83
2021/10/27 16:04:16;;;;;;;6.43;5.10;;;;;;;12.16;64.33;100366.16;5018339;28;20652;-87
2021/10/27 16:06:55;;;;;;;7.27;6.20;;;;;;;12.16;64.07;100375.06;5020369;28;20571;-81
2021/10/27 16:09:44;;;;;;;6.97;5.80;;;;;;;12.03;64.84;100372.41;5029097;28;20693;-81
2021/10/27 16:12:33;;;;;;;5.90;5.40;;;;;;;11.96;65.40;100387.69;5051689;28;20252;-79
2021/10/27 16:16:12;;;;;;;6.67;5.87;;;;;;;11.75;65.92;100380.72;5054800;28;20255;-79
2021/10/27 16:18:23;;;;;;;7.93;6.53;;;;;;;11.65;66.35;100399.09;5044627;28;20230;-79
2021/10/27 16:20:58;;;;;;;8.57;6.33;;;;;;;11.42;66.71;100372.69;5065371;22;20249;-78
2021/10/27 16:23:48;;;;;;;8.80;6.20;;;;;;;11.39;67.14;100382.97;5066509;22;20189;-78
2021/10/27 16:26:25;;;;;;;12.30;6.43;;;;;;;11.34;67.45;100396.19;5040732;28;20170;-78
2021/10/27 16:29:26;;;;;;;8.43;6.50;;;;;;;11.15;67.91;100386.28;5058715;28;20240;-78
2021/10/27 16:32:22;;;;;;;8.10;6.90;;;;;;;11.04;68.82;100398.44;5058478;28;20239;-78
2021/10/27 16:35:37;;;;;;;8.53;7.60;;;;;;;10.88;69.67;100409.53;5168948;22;20220;-78
2021/10/27 16:38:37;;;;;;;9.00;8.10;;;;;;;10.77;69.64;100405.59;5173477;22;20304;-78
2021/10/27 16:41:21;;;;;;;10.00;8.10;;;;;;;10.59;70.09;100405.34;5085305;22;20272;-78
2021/10/27 16:44:12;;;;;;;11.47;8.40;;;;;;;10.40;70.84;100401.56;5070601;28;20229;-80
2021/10/27 16:47:16;;;;;;;9.00;7.40;;;;;;;10.35;70.87;100419.25;5068904;22;20252;-78
2021/10/27 16:49:48;;;;;;;7.93;7.10;;;;;;;10.24;71.40;100412.59;5078432;28;20276;-78
2021/10/27 16:53:01;;;;;;;8.20;7.37;;;;;;;10.12;71.73;100412.28;5078414;28;20232;-81
2021/10/27 16:55:56;;;;;;;7.90;6.93;;;;;;;10.00;72.04;100411.19;5077414;28;20225;-81
2021/10/27 16:58:53;;;;;;;7.73;6.67;;;;;;;9.93;72.40;100418.38;5175332;22;20256;-80
2021/10/27 17:02:03;;;;;;;7.57;6.20;;;;;;;9.80;72.45;100407.56;5179113;22;20287;-81
2021/10/27 17:04:52;;;;;;;6.90;6.20;;;;;;;9.63;72.91;100403.53;5072290;22;20201;-81
2021/10/27 17:08:05;;;;;;;7.73;6.60;;;;;;;9.58;73.14;100420.16;5036770;28;20262;-81
2021/10/27 17:11:07;;;;;;;11.93;8.37;;;;;;;9.44;72.81;100409.53;5083657;22;20257;-81
2021/10/27 17:14:13;;;;;;;14.47;10.30;;;;;;;9.36;73.71;100423.91;5063897;28;20208;-81
2021/10/27 17:17:04;;;;;;;17.73;12.60;;;;;;;9.26;74.19;100418.03;5084654;22;20289;-80
2021/10/27 17:19:55;;;;;;;24.77;17.63;;;;;;;9.18;74.61;100423.53;5084710;22;20229;-81
2021/10/27 17:23:37;;;;;;;20.67;13.33;;;;;;;9.06;74.34;100425.88;5055552;28;20226;-81
2021/10/27 17:26:44;;;;;;;20.47;14.30;;;;;;;8.99;74.65;100426.81;5094874;22;20295;-81
2021/10/27 17:29:48;;;;;;;16.03;12.13;;;;;;;8.88;75.05;100427.31;5061489;22;20316;-80
2021/10/27 17:32:26;;;;;;;16.07;12.30;;;;;;;8.83;75.50;100433.22;5056010;28;20262;-81
2021/10/27 17:35:00;;;;;;;16.90;12.40;;;;;;;8.69;75.03;100418.06;5161313;23;20193;-80
2021/10/27 17:37:55;;;;;;;19.83;13.70;;;;;;;8.63;75.35;100432.19;5045720;28;20277;-81
2021/10/27 17:40:54;;;;;;;18.73;12.27;;;;;;;8.56;76.02;100437.44;5059109;28;20214;-81
2021/10/27 17:44:21;;;;;;;17.63;12.00;;;;;;;8.49;76.52;100435.72;5058912;28;20245;-80
2021/10/27 17:47:23;;;;;;;17.77;12.03;;;;;;;8.41;76.59;100431.28;5066228;23;20297;-81
2021/10/27 17:59:33;;;;;;;14.90;11.73;;;;;;;8.15;77.53;100446.94;5013200;23;20215;-80
2021/10/27 18:02:28;;;;;;;19.53;13.03;;;;;;;8.09;77.65;100439.66;5038419;28;20211;-81
2021/10/27 18:05:48;;;;;;;15.93;12.87;;;;;;;7.91;78.26;100419.50;5089969;22;20239;-81
2021/10/27 18:08:47;;;;;;;17.03;13.50;;;;;;;7.95;78.41;100438.63;5095905;22;20520;-80
2021/10/27 18:12:03;;;;;;;18.63;13.23;;;;;;;7.87;78.28;100444.91;5085189;22;20240;-80